Junedale, Pennsylvania
Current Conditions -  °F | °C
As of 5:35 PM on Sunday 25 Jan 2015 (Local Time) from KHZL Reporting Station
Overcast Overcast  
Wind Chill: 25°   Ceiling: 3400
Heat Index: 30°   Visibility: 10mi
Dew Point: 10°   Wind: 5mph
Humidity: 44%   Direction: 20°NNE
Pressure: 29.82"   Gusts: NA
Location:  40.92°N, 75.94°W
Report Text: KHZL 252235Z AUTO 02004KT 10SM OVC034 M01/M12 A2982 RMK AO2
Loading
Personal Weather Stations






























Interactive Weather Map New forecast layout! Learn more

10-Day Weather Forecast

Advertisements
Track Severe Weather on mobile